createdAt,value
2019-03-27T00:01:10.927Z,75687.02
2019-03-27T00:03:51.920Z,75710.87
2019-03-27T00:06:33.173Z,75732.73
2019-03-27T00:09:14.116Z,75738.69
2019-03-27T00:11:55.103Z,75731.73
2019-03-27T00:14:36.131Z,75720.80
2019-03-27T00:17:16.576Z,75719.81
2019-03-27T00:19:57.648Z,75695.96
2019-03-27T00:22:38.619Z,75682.05
2019-03-27T00:25:19.897Z,75682.05
2019-03-27T00:28:00.533Z,75681.06
2019-03-27T00:30:41.504Z,75701.92
2019-03-27T00:33:22.784Z,75716.83
2019-03-27T00:36:03.388Z,75726.77
2019-03-27T00:38:44.379Z,75729.74
2019-03-27T00:41:25.018Z,75730.73
2019-03-27T00:44:06.322Z,75717.82
2019-03-27T00:46:47.531Z,75714.84
2019-03-27T00:49:28.986Z,75708.88
2019-03-27T00:52:09.783Z,75699.94
2019-03-27T00:54:49.690Z,75692.98
2019-03-27T00:57:30.086Z,75685.03
2019-03-27T01:00:10.613Z,75684.04
2019-03-27T01:02:51.043Z,75677.09
2019-03-27T01:05:31.320Z,75666.16
2019-03-27T01:08:11.699Z,75647.28
2019-03-27T01:10:52.079Z,75621.45
2019-03-27T01:13:32.691Z,75619.46
2019-03-27T01:16:12.762Z,75609.52
2019-03-27T01:18:52.828Z,75576.73
2019-03-27T01:21:33.127Z,75563.83
2019-03-27T01:24:13.640Z,75552.89
2019-03-27T01:26:54.548Z,75539.98
2019-03-27T01:29:35.210Z,75545.94
2019-03-27T01:32:16.295Z,75558.86
2019-03-27T01:34:57.207Z,75539.98
2019-03-27T01:37:38.101Z,75523.09
2019-03-27T01:40:18.981Z,75497.26
2019-03-27T01:42:59.769Z,75485.33
2019-03-27T01:45:52.493Z,75476.39
2019-03-27T01:48:22.468Z,75465.47
2019-03-27T01:51:04.260Z,75460.50
2019-03-27T01:53:45.296Z,75444.60
2019-03-27T01:56:25.766Z,75424.73
2019-03-27T01:59:06.599Z,75417.78
2019-03-27T02:01:47.176Z,75408.84
2019-03-27T02:04:27.916Z,75387.97
2019-03-27T02:07:08.523Z,75383.00
2019-03-27T02:09:49.157Z,75374.06
2019-03-27T02:12:30.081Z,75373.07
2019-03-27T02:15:11.007Z,75359.16
2019-03-27T02:17:51.956Z,75352.20
2019-03-27T02:20:32.737Z,75349.23
2019-03-27T02:23:13.645Z,75334.33
2019-03-27T02:25:54.315Z,75334.33
2019-03-27T03:09:49.313Z,75151.53
2019-03-27T03:12:30.408Z,75148.55
2019-03-27T03:15:11.017Z,75163.45
2019-03-27T03:17:51.973Z,75154.52
2019-03-27T03:20:33.212Z,75166.44
2019-03-27T03:23:14.515Z,75170.41
2019-03-27T03:25:54.961Z,75193.25
2019-03-27T05:54:42.829Z,74680.68
2019-03-27T05:57:25.565Z,74656.84
2019-03-27T06:00:08.799Z,74667.77
2019-03-27T06:02:53.747Z,74653.86
2019-03-27T06:08:21.443Z,74650.88
2019-03-27T06:16:33.564Z,74689.63
2019-03-27T06:19:18.635Z,74643.92
2019-03-27T06:21:59.869Z,74615.13
2019-03-27T06:24:45.539Z,74624.06
2019-03-27T06:48:25.498Z,74546.59
2019-03-27T06:50:53.796Z,74514.80
2019-03-27T06:53:33.708Z,74540.63
2019-03-27T06:56:14.273Z,74508.84
2019-03-27T06:58:55.184Z,74485.00
2019-03-27T07:01:36.360Z,74484.01
2019-03-27T07:04:16.780Z,74468.12
2019-03-27T07:06:57.126Z,74467.13
2019-03-27T07:09:37.850Z,74478.05
2019-03-27T07:12:21.617Z,74524.73
2019-03-27T07:15:02.099Z,74503.88
2019-03-27T07:17:42.929Z,74460.17
2019-03-27T07:20:23.183Z,74588.30
2019-03-27T07:23:04.274Z,74526.72
2019-03-27T07:25:44.964Z,74521.75
2019-03-27T07:28:25.806Z,74505.86
2019-03-27T07:31:06.443Z,74527.71
2019-03-27T07:33:46.479Z,74521.75
2019-03-27T07:36:27.024Z,74480.04
2019-03-27T07:39:11.378Z,74471.09
2019-03-27T07:41:48.433Z,74447.26
2019-03-27T07:44:29.365Z,74407.53
2019-03-27T07:47:09.702Z,74389.66
2019-03-27T07:49:50.802Z,74377.73
2019-03-27T07:52:37.158Z,74385.68
2019-03-27T07:55:19.962Z,74400.58
2019-03-27T07:58:00.585Z,74460.17
2019-03-27T08:00:42.766Z,74454.21
2019-03-27T08:03:23.334Z,74450.23
2019-03-27T08:06:03.870Z,74422.43
2019-03-27T08:08:45.001Z,74383.69
2019-03-27T08:11:26.334Z,74353.90
2019-03-27T08:14:08.327Z,74353.90
2019-03-27T08:16:50.188Z,74325.09
2019-03-27T08:21:46.567Z,74368.80
2019-03-27T08:24:27.161Z,74385.68
2019-03-27T08:29:22.761Z,74406.53
2019-03-27T08:32:03.093Z,74392.63
2019-03-27T08:34:43.576Z,74364.82
2019-03-27T08:37:24.020Z,74378.73
2019-03-27T08:44:36.286Z,74367.80
2019-03-27T08:47:16.976Z,74406.53
2019-03-27T08:49:57.771Z,74407.53
2019-03-27T08:52:38.050Z,74366.81
2019-03-27T08:55:21.150Z,74332.05
2019-03-27T08:58:02.766Z,74335.02
2019-03-27T09:00:43.725Z,74349.92
2019-03-27T09:03:24.424Z,74349.92
2019-03-27T09:06:05.748Z,74355.88
2019-03-27T09:08:46.653Z,74358.86
2019-03-27T09:11:29.394Z,74358.86
2019-03-27T09:14:09.902Z,74328.08
2019-03-27T09:16:50.439Z,74367.80
2019-03-27T09:19:36.154Z,74361.84
2019-03-27T09:22:11.802Z,74362.84
2019-03-27T09:24:52.708Z,74335.02
2019-03-27T09:27:33.321Z,74321.13
2019-03-27T09:30:14.322Z,74334.03
2019-03-27T09:32:54.674Z,74365.81
2019-03-27T09:35:35.005Z,74366.81
2019-03-27T09:38:15.594Z,74382.70
2019-03-27T09:40:56.262Z,74390.64
2019-03-27T09:43:36.921Z,74378.73
2019-03-27T09:46:21.781Z,74369.79
2019-03-27T09:49:05.165Z,74367.80
2019-03-27T09:51:46.607Z,74372.77
2019-03-27T09:54:26.901Z,74367.80
2019-03-27T09:57:07.321Z,74382.70
2019-03-27T09:59:47.485Z,74366.81
2019-03-27T10:02:28.031Z,74384.69
2019-03-27T10:05:08.676Z,74383.69
2019-03-27T10:07:48.945Z,74383.69
2019-03-27T10:10:29.332Z,74376.73
2019-03-27T10:13:10.479Z,74364.82
2019-03-27T10:15:51.654Z,74375.75
2019-03-27T10:18:33.094Z,74380.71
2019-03-27T10:21:15.204Z,74362.84
2019-03-27T10:23:55.682Z,74380.71
2019-03-27T10:26:42.451Z,74369.79
2019-03-27T10:29:23.331Z,74385.68
2019-03-27T10:32:04.422Z,74377.73
2019-03-27T10:34:45.972Z,74375.75
2019-03-27T10:37:26.459Z,74354.89
2019-03-27T10:40:06.511Z,74354.89
2019-03-27T10:42:47.244Z,74360.84
2019-03-27T10:45:27.770Z,74351.91
2019-03-27T10:48:08.637Z,74336.02
2019-03-27T10:50:49.914Z,74337.02
2019-03-27T10:53:30.541Z,74356.88
2019-03-27T10:56:12.287Z,74353.90
2019-03-27T10:58:53.460Z,74353.90
2019-03-27T11:01:34.223Z,74360.84
2019-03-27T11:04:15.038Z,74363.83
2019-03-27T11:06:55.519Z,74367.80
2019-03-27T11:09:35.656Z,74375.75
2019-03-27T11:12:15.895Z,74388.66
2019-03-27T11:14:57.016Z,74383.69
2019-03-27T11:17:38.132Z,74380.71
2019-03-27T11:20:30.371Z,74385.68
2019-03-27T11:22:59.109Z,74403.56
2019-03-27T11:25:39.877Z,74409.52
2019-03-27T11:28:20.521Z,74413.48
2019-03-27T11:31:01.193Z,74424.41
2019-03-27T11:33:41.885Z,74435.34
2019-03-27T11:36:22.491Z,74436.34
2019-03-27T11:39:03.644Z,74439.31
2019-03-27T11:41:44.211Z,74449.25
2019-03-27T11:44:24.651Z,74449.25
2019-03-27T11:47:04.807Z,74460.17
2019-03-27T11:49:45.422Z,74471.09
2019-03-27T11:52:29.321Z,74476.06
2019-03-27T11:55:06.841Z,74487.98
2019-03-27T11:57:46.989Z,74498.91
2019-03-27T12:00:28.035Z,74532.68
2019-03-27T12:03:08.218Z,74555.52
2019-03-27T12:05:48.883Z,74571.42
2019-03-27T12:08:29.534Z,74582.34
2019-03-27T12:11:09.711Z,74586.31
2019-03-27T12:13:50.687Z,74598.23
2019-03-27T12:16:31.282Z,74615.13
2019-03-27T12:19:12.003Z,74627.05
2019-03-27T12:21:54.816Z,74636.97
2019-03-27T12:24:34.062Z,74645.91
2019-03-27T12:27:15.053Z,74657.83
2019-03-27T12:29:56.362Z,74674.72
2019-03-27T12:32:37.962Z,74673.73
2019-03-27T12:35:19.253Z,74695.58
2019-03-27T12:37:59.962Z,74712.47
2019-03-27T12:40:41.039Z,74730.34
2019-03-27T12:43:22.565Z,74765.11
2019-03-27T12:46:03.408Z,74779.02
2019-03-27T12:48:44.916Z,74793.92
2019-03-27T12:51:26.051Z,74805.84
2019-03-27T12:54:06.495Z,74816.77
2019-03-27T12:56:47.419Z,74822.72
2019-03-27T12:59:29.190Z,74852.52
2019-03-27T13:02:10.770Z,74863.45
2019-03-27T13:04:52.229Z,74861.47
2019-03-27T13:07:33.577Z,74867.42
2019-03-27T13:10:14.830Z,74873.38
2019-03-27T13:12:56.203Z,74880.34
2019-03-27T13:15:37.169Z,74893.25
2019-03-27T13:18:17.849Z,74909.14
2019-03-27T13:20:58.664Z,74920.07
2019-03-27T13:23:40.040Z,74919.08
2019-03-27T13:26:21.325Z,74945.90
2019-03-27T13:29:04.359Z,74961.80
2019-03-27T13:31:44.602Z,74986.63
2019-03-27T13:34:25.362Z,74995.56
2019-03-27T13:37:05.846Z,74973.72
2019-03-27T13:39:46.729Z,74964.77
2019-03-27T13:42:27.735Z,74977.69
2019-03-27T13:45:08.879Z,74991.59
2019-03-27T13:47:49.951Z,75012.45
2019-03-27T13:50:31.799Z,75022.39
2019-03-27T13:53:12.739Z,75023.38
2019-03-27T13:55:54.089Z,75047.22
2019-03-27T13:58:35.542Z,75062.13
2019-03-27T14:01:17.156Z,75053.19
2019-03-27T14:03:58.921Z,75054.18
2019-03-27T14:06:40.515Z,75054.18
2019-03-27T14:09:22.857Z,75054.18
2019-03-27T14:12:04.030Z,75055.17
2019-03-27T14:14:50.404Z,75052.19
2019-03-27T14:17:27.760Z,75064.11
2019-03-27T14:20:10.101Z,75075.04
2019-03-27T14:22:51.549Z,75086.96
2019-03-27T14:25:33.949Z,75093.91
2019-03-27T14:28:16.738Z,75095.91
2019-03-27T14:30:58.452Z,75109.81
2019-03-27T14:33:40.038Z,75113.78
2019-03-27T14:36:25.356Z,75121.73
2019-03-27T14:39:06.836Z,75128.69
2019-03-27T14:41:49.042Z,75134.64
2019-03-27T14:44:30.138Z,75132.66
2019-03-27T14:47:13.169Z,75139.61
2019-03-27T14:49:57.391Z,75151.53
2019-03-27T14:52:38.610Z,75161.47
2019-03-27T14:55:21.892Z,75171.40
2019-03-27T14:58:07.502Z,75171.40
2019-03-27T15:00:49.533Z,75175.38
2019-03-27T15:03:31.179Z,75192.27
2019-03-27T15:06:14.639Z,75213.13
2019-03-27T15:08:55.715Z,75224.05
2019-03-27T15:11:42.490Z,75225.05
2019-03-27T15:14:28.285Z,75223.06
2019-03-27T15:17:09.754Z,75224.05
2019-03-27T15:19:51.382Z,75232.99
2019-03-27T15:22:32.434Z,75236.97
2019-03-27T15:25:13.249Z,75239.95
2019-03-27T15:27:54.462Z,75237.96
2019-03-27T15:30:37.178Z,75245.91
2019-03-27T15:33:17.962Z,75250.88
2019-03-27T15:35:58.623Z,75248.89
2019-03-27T15:38:39.403Z,75248.89
2019-03-27T15:41:20.520Z,75264.78
2019-03-27T15:44:01.811Z,75269.75
2019-03-27T15:46:42.692Z,75266.77
2019-03-27T15:49:24.042Z,75267.77
2019-03-27T15:52:05.003Z,75285.64
2019-03-27T15:54:45.787Z,75285.64
2019-03-27T15:57:26.784Z,75278.69
2019-03-27T16:00:07.134Z,75278.69
2019-03-27T16:02:49.182Z,75280.68
2019-03-27T16:05:29.554Z,75287.63
2019-03-27T16:08:10.170Z,75294.59
2019-03-27T16:10:51.082Z,75299.55
2019-03-27T16:13:32.005Z,75292.59
2019-03-27T16:16:13.012Z,75295.58
2019-03-27T16:18:53.326Z,75296.58
2019-03-27T16:21:37.448Z,75300.55
2019-03-27T16:24:15.897Z,75304.52
2019-03-27T16:27:04.310Z,75311.47
2019-03-27T16:29:38.457Z,75309.48
2019-03-27T16:32:19.224Z,75306.51
2019-03-27T16:35:00.681Z,75305.52
2019-03-27T16:37:41.312Z,75301.55
2019-03-27T16:40:22.384Z,75300.55
2019-03-27T16:43:03.245Z,75304.52
2019-03-27T16:45:43.771Z,75306.51
2019-03-27T16:48:25.173Z,75305.52
2019-03-27T16:51:05.860Z,75306.51
2019-03-27T16:53:47.086Z,75311.47
2019-03-27T16:56:28.115Z,75307.50
2019-03-27T16:59:09.001Z,75308.50
2019-03-27T17:01:49.974Z,75299.55
2019-03-27T17:04:30.565Z,75295.58
2019-03-27T17:07:10.922Z,75292.59
2019-03-27T17:09:52.522Z,75293.59
2019-03-27T17:12:34.007Z,75290.61
2019-03-27T17:15:15.732Z,75288.63
2019-03-27T17:17:56.780Z,75277.70
2019-03-27T17:20:38.385Z,75276.70
2019-03-27T17:23:19.561Z,75269.75
2019-03-27T17:26:01.227Z,75279.69
2019-03-27T17:28:41.693Z,75280.68
2019-03-27T17:31:22.551Z,75289.62
2019-03-27T17:34:03.731Z,75287.63
2019-03-27T17:36:44.693Z,75290.61
2019-03-27T17:39:25.675Z,75289.62
2019-03-27T17:42:06.602Z,75291.61
2019-03-27T17:44:47.338Z,75287.63
2019-03-27T17:47:28.526Z,75304.52
2019-03-27T17:50:09.162Z,75296.58
2019-03-27T17:52:49.674Z,75298.56
2019-03-27T17:55:30.769Z,75300.55
2019-03-27T17:58:11.035Z,75302.53
2019-03-27T18:00:52.012Z,75317.44
2019-03-27T18:03:32.945Z,75339.30
2019-03-27T18:06:13.754Z,75354.20
2019-03-27T18:08:54.765Z,75329.36
2019-03-27T18:11:36.201Z,75320.42
2019-03-27T18:14:17.172Z,75326.38
2019-03-27T18:16:57.856Z,75366.12
2019-03-27T18:19:38.573Z,75378.03
2019-03-27T18:22:19.168Z,75375.05
2019-03-27T18:25:00.342Z,75368.11
2019-03-27T18:27:40.575Z,75373.07
2019-03-27T18:30:21.997Z,75387.97
2019-03-27T18:33:02.931Z,75396.91
2019-03-27T18:35:43.832Z,75395.92
2019-03-27T18:38:24.630Z,75397.91
2019-03-27T18:41:05.496Z,75390.95
2019-03-27T18:43:46.178Z,75394.92
2019-03-27T18:46:27.322Z,75392.94
2019-03-27T18:49:10.445Z,75384.00
2019-03-27T18:51:51.650Z,75393.94
2019-03-27T18:54:32.533Z,75390.95
2019-03-27T18:57:13.497Z,75384.99
2019-03-27T18:59:54.085Z,75381.02
2019-03-27T19:02:35.083Z,75367.11
2019-03-27T19:05:16.364Z,75347.24
2019-03-27T19:07:57.327Z,75356.18
2019-03-27T19:10:38.303Z,75366.12
2019-03-27T19:13:19.886Z,75371.09
2019-03-27T19:16:01.315Z,75370.09
2019-03-27T19:18:42.947Z,75376.05
2019-03-27T19:21:23.866Z,75369.09
2019-03-27T19:24:14.823Z,75363.14
2019-03-27T19:26:46.606Z,75356.18
2019-03-27T19:29:27.882Z,75360.16
2019-03-27T19:32:09.810Z,75364.13
2019-03-27T19:34:51.200Z,75361.15
2019-03-27T19:37:32.363Z,75349.23
2019-03-27T19:40:13.969Z,75335.31
2019-03-27T19:42:55.761Z,75356.18
2019-03-27T19:45:37.522Z,75370.09
2019-03-27T19:48:18.570Z,75374.06
2019-03-27T19:50:59.472Z,75373.07
2019-03-27T19:53:41.026Z,75366.12
2019-03-27T19:56:22.604Z,75365.13
2019-03-27T19:59:03.884Z,75369.09
2019-03-27T20:01:44.362Z,75368.11
2019-03-27T20:04:25.664Z,75359.16
2019-03-27T20:07:06.766Z,75351.22
2019-03-27T20:09:47.423Z,75356.18
2019-03-27T20:12:28.269Z,75363.14
2019-03-27T20:15:12.465Z,75363.14
2019-03-27T20:17:50.456Z,75361.15
2019-03-27T20:20:31.636Z,75362.14
2019-03-27T20:23:15.159Z,75362.14
2019-03-27T20:25:54.455Z,75364.13
2019-03-27T20:28:35.153Z,75365.13
2019-03-27T20:31:15.728Z,75359.16
2019-03-27T20:33:57.017Z,75361.15
2019-03-27T20:36:38.576Z,75361.15
2019-03-27T20:39:19.573Z,75367.11
2019-03-27T20:42:00.227Z,75374.06
2019-03-27T20:44:41.242Z,75371.09
2019-03-27T20:47:21.685Z,75376.05
2019-03-27T20:50:02.023Z,75392.94
2019-03-27T20:52:42.682Z,75390.95
2019-03-27T20:55:30.017Z,75388.97
2019-03-27T20:58:05.330Z,75390.95
2019-03-27T21:00:46.033Z,75384.99
2019-03-27T21:03:26.620Z,75391.95
2019-03-27T21:06:08.540Z,75392.94
2019-03-27T21:08:49.658Z,75397.91
2019-03-27T21:11:30.629Z,75397.91
2019-03-27T21:14:11.496Z,75398.90
2019-03-27T21:16:52.497Z,75392.94
2019-03-27T21:19:35.980Z,75398.90
2019-03-27T21:22:14.937Z,75404.86
2019-03-27T21:25:07.617Z,75404.86
2019-03-27T21:27:36.535Z,75408.84
2019-03-27T21:30:17.178Z,75409.83
2019-03-27T21:32:57.206Z,75404.86
2019-03-27T21:35:37.584Z,75408.84
2019-03-27T21:38:18.090Z,75407.84
2019-03-27T21:40:58.815Z,75407.84
2019-03-27T21:43:39.454Z,75408.84
2019-03-27T21:46:20.134Z,75408.84
2019-03-27T21:49:00.697Z,75412.81
2019-03-27T21:51:41.703Z,75410.83
2019-03-27T21:54:22.352Z,75420.76
2019-03-27T21:57:02.990Z,75417.78
2019-03-27T21:59:43.595Z,75420.76
2019-03-27T22:02:24.539Z,75416.78
2019-03-27T22:05:05.482Z,75413.80
2019-03-27T22:07:46.189Z,75413.80
2019-03-27T22:10:27.096Z,75410.83
2019-03-27T22:13:08.257Z,75405.86
2019-03-27T22:15:49.023Z,75398.90
2019-03-27T22:18:29.983Z,75401.88
2019-03-27T22:21:10.353Z,75407.84
2019-03-27T22:23:51.251Z,75409.83
2019-03-27T22:26:31.744Z,75409.83
2019-03-27T22:29:12.531Z,75413.80
2019-03-27T22:31:53.191Z,75414.80
2019-03-27T22:34:33.823Z,75411.81
2019-03-27T22:37:14.858Z,75410.83
2019-03-27T22:39:55.419Z,75412.81
2019-03-27T22:42:36.067Z,75406.84
2019-03-27T22:45:16.434Z,75403.87
2019-03-27T22:47:56.763Z,75401.88
2019-03-27T22:50:37.398Z,75398.90
2019-03-27T22:53:18.212Z,75398.90
2019-03-27T22:55:59.244Z,75412.81
2019-03-27T22:58:40.278Z,75417.78
2019-03-27T23:01:20.858Z,75422.74
2019-03-27T23:04:00.937Z,75423.73
2019-03-27T23:06:41.882Z,75424.73
2019-03-27T23:09:22.460Z,75422.74
2019-03-27T23:12:03.097Z,75423.73
2019-03-27T23:14:44.049Z,75423.73
2019-03-27T23:17:24.700Z,75420.76
2019-03-27T23:20:05.337Z,75419.77
2019-03-27T23:22:46.202Z,75423.73
2019-03-27T23:25:27.034Z,75428.70
2019-03-27T23:28:08.225Z,75429.70
2019-03-27T23:30:49.490Z,75434.67
2019-03-27T23:33:29.902Z,75427.71
2019-03-27T23:36:11.142Z,75426.72
2019-03-27T23:38:52.441Z,75429.70
2019-03-27T23:41:33.330Z,75436.66
2019-03-27T23:44:14.115Z,75435.66
2019-03-27T23:46:54.993Z,75438.64
2019-03-27T23:49:35.951Z,75440.63
2019-03-27T23:52:17.034Z,75436.66
2019-03-27T23:54:58.470Z,75434.67
2019-03-27T23:57:39.411Z,75440.63
